Time;durP1;ratioP1;P1;durP2;ratioP2;P2;SDS_P1;SDS_P2;PMS_P1;PMS_P2;Temp;Humidity;BMP_temperature;BMP_pressure;BME280_temperature;BME280_humidity;BME280_pressure;Samples;Min_cycle;Max_cycle;Signal;HPM_P1;HPM_P2
2022/04/03 00:01:27;;;;;;;1.13;0.57;;;;;;;;;;4917716;29;20048;-69
2022/04/03 00:03:52;;;;;;;1.25;0.55;;;;;;;;;;4918858;29;20522;-69
2022/04/03 00:06:18;;;;;;;3.42;0.60;;;;;;;;;;4918750;29;20036;-72
2022/04/03 00:08:44;;;;;;;5.38;0.50;;;;;;;;;;4918632;29;20035;-68
2022/04/03 00:11:10;;;;;;;0.70;0.50;;;;;;;;;;4918850;29;20124;-74
2022/04/03 00:13:37;;;;;;;0.30;0.28;;;;;;;;;;4918669;29;20407;-67
2022/04/03 00:16:04;;;;;;;1.23;0.55;;;;;;;;;;4919976;29;20396;-70
2022/04/03 00:18:32;;;;;;;2.40;0.50;;;;;;;;;;4924751;29;20036;-67
2022/04/03 00:20:59;;;;;;;1.08;0.52;;;;;;;;;;4918160;29;20028;-70
2022/04/03 00:23:25;;;;;;;0.95;0.60;;;;;;;;;;4918298;29;20460;-68
2022/04/03 00:25:52;;;;;;;1.83;0.47;;;;;;;;;;4917594;29;20467;-68
2022/04/03 00:28:19;;;;;;;3.92;0.60;;;;;;;;;;4918158;29;20103;-69
2022/04/03 00:30:44;;;;;;;1.95;0.50;;;;;;;;;;4916971;29;20045;-67
2022/04/03 00:33:11;;;;;;;0.40;0.40;;;;;;;;;;4917335;29;20048;-67
2022/04/03 00:35:37;;;;;;;0.55;0.40;;;;;;;;;;4918451;29;20499;-69
2022/04/03 00:38:06;;;;;;;0.88;0.60;;;;;;;;;;4918208;29;20036;-68
2022/04/03 00:40:32;;;;;;;2.17;0.70;;;;;;;;;;4918426;29;20395;-68
2022/04/03 00:42:58;;;;;;;0.63;0.60;;;;;;;;;;4917999;29;20113;-67
2022/04/03 00:45:24;;;;;;;1.08;0.45;;;;;;;;;;4917676;29;20032;-66
2022/04/03 00:47:54;;;;;;;1.67;0.55;;;;;;;;;;4918246;29;20032;-69
2022/04/03 00:50:21;;;;;;;1.05;0.60;;;;;;;;;;4916759;29;20091;-69
2022/04/03 00:52:48;;;;;;;0.98;0.60;;;;;;;;;;4917813;29;20428;-69
2022/04/03 00:55:14;;;;;;;0.80;0.60;;;;;;;;;;4917732;29;20498;-67
2022/04/03 00:57:43;;;;;;;1.25;0.68;;;;;;;;;;4917930;29;20028;-69
2022/04/03 01:00:12;;;;;;;0.43;0.40;;;;;;;;;;4918243;29;20488;-67
2022/04/03 01:02:39;;;;;;;0.82;0.52;;;;;;;;;;4916610;29;20083;-72
2022/04/03 01:05:06;;;;;;;2.28;0.63;;;;;;;;;;4917588;29;20064;-67
2022/04/03 01:07:32;;;;;;;0.80;0.52;;;;;;;;;;4917787;29;20028;-70
2022/04/03 01:09:59;;;;;;;3.88;0.70;;;;;;;;;;4917489;29;20040;-71
2022/04/03 01:12:25;;;;;;;0.50;0.50;;;;;;;;;;4917546;29;20032;-73
2022/04/03 01:14:50;;;;;;;1.67;0.70;;;;;;;;;;4917717;29;20099;-73
2022/04/03 01:17:16;;;;;;;1.55;0.60;;;;;;;;;;4917470;29;20226;-72
2022/04/03 01:19:42;;;;;;;2.08;1.27;;;;;;;;;;4917420;29;20032;-71
2022/04/03 01:22:09;;;;;;;1.05;0.77;;;;;;;;;;4917382;29;20472;-71
2022/04/03 01:24:35;;;;;;;2.72;0.60;;;;;;;;;;4917114;29;20403;-73
2022/04/03 01:27:01;;;;;;;2.58;0.55;;;;;;;;;;4917260;29;20043;-73
2022/04/03 01:29:27;;;;;;;2.63;0.57;;;;;;;;;;4917079;29;20048;-72
2022/04/03 01:31:53;;;;;;;1.83;0.70;;;;;;;;;;4917342;29;20040;-72
2022/04/03 01:34:20;;;;;;;2.78;0.70;;;;;;;;;;4916923;29;20040;-72
2022/04/03 01:36:48;;;;;;;1.27;0.80;;;;;;;;;;4917066;29;20476;-73
2022/04/03 01:39:14;;;;;;;1.48;0.70;;;;;;;;;;4916925;29;20039;-69
2022/04/03 01:41:42;;;;;;;1.30;0.82;;;;;;;;;;4917259;29;20505;-69
2022/04/03 01:44:10;;;;;;;1.10;0.70;;;;;;;;;;4916746;29;20484;-70
2022/04/03 01:46:37;;;;;;;0.85;0.70;;;;;;;;;;4916766;29;20475;-70
2022/04/03 01:49:04;;;;;;;0.85;0.60;;;;;;;;;;4916598;29;20035;-69
2022/04/03 01:51:32;;;;;;;1.05;0.45;;;;;;;;;;4916780;29;20395;-72
2022/04/03 01:53:59;;;;;;;2.45;0.90;;;;;;;;;;4917201;29;20055;-71
2022/04/03 01:56:25;;;;;;;0.77;0.52;;;;;;;;;;4921315;29;20055;-70
2022/04/03 01:58:51;;;;;;;1.25;0.70;;;;;;;;;;4916749;29;20495;-69
2022/04/03 02:01:17;;;;;;;2.88;0.80;;;;;;;;;;4916174;29;20535;-73
2022/04/03 02:03:43;;;;;;;1.23;0.80;;;;;;;;;;4916406;29;20044;-69
2022/04/03 02:06:09;;;;;;;1.13;0.70;;;;;;;;;;4916823;29;20032;-68
2022/04/03 02:08:34;;;;;;;0.80;0.70;;;;;;;;;;4916136;29;20116;-68
2022/04/03 02:11:00;;;;;;;1.48;1.00;;;;;;;;;;4916108;29;20050;-67
2022/04/03 02:13:26;;;;;;;2.42;1.08;;;;;;;;;;4921401;29;20044;-69
2022/04/03 02:15:52;;;;;;;1.90;0.68;;;;;;;;;;4918391;29;20032;-72
2022/04/03 02:18:17;;;;;;;1.88;0.88;;;;;;;;;;4916095;29;20079;-71
2022/04/03 02:20:43;;;;;;;3.58;1.48;;;;;;;;;;4916218;29;20399;-71
2022/04/03 02:23:10;;;;;;;2.10;1.20;;;;;;;;;;4916490;29;20086;-68
2022/04/03 02:25:37;;;;;;;4.68;1.17;;;;;;;;;;4915827;29;20149;-68
2022/04/03 02:28:04;;;;;;;2.45;0.95;;;;;;;;;;4916163;29;20048;-68
2022/04/03 02:30:30;;;;;;;1.77;1.10;;;;;;;;;;4915978;29;20036;-69
2022/04/03 02:32:56;;;;;;;3.70;1.02;;;;;;;;;;4916181;29;20051;-71
2022/04/03 02:35:22;;;;;;;1.42;0.95;;;;;;;;;;4915671;29;20395;-70
2022/04/03 02:37:48;;;;;;;3.88;1.10;;;;;;;;;;4915908;29;20488;-67
2022/04/03 02:40:16;;;;;;;2.45;1.02;;;;;;;;;;4916049;29;20115;-67
2022/04/03 02:42:43;;;;;;;1.52;1.00;;;;;;;;;;4898885;29;20032;-68
2022/04/03 02:45:10;;;;;;;1.73;0.90;;;;;;;;;;4915934;29;20526;-68
2022/04/03 02:47:36;;;;;;;2.10;1.20;;;;;;;;;;4915796;29;20040;-68
2022/04/03 02:50:04;;;;;;;3.03;1.23;;;;;;;;;;4915824;29;20087;-71
2022/04/03 02:52:30;;;;;;;1.75;1.33;;;;;;;;;;4915976;29;20028;-69
2022/04/03 02:54:56;;;;;;;1.85;1.00;;;;;;;;;;4914450;29;20088;-69
2022/04/03 02:57:23;;;;;;;4.18;1.20;;;;;;;;;;4915756;29;20036;-68
2022/04/03 02:59:49;;;;;;;4.80;1.30;;;;;;;;;;4915697;29;20356;-67
2022/04/03 03:02:15;;;;;;;3.58;1.30;;;;;;;;;;4915949;29;20041;-69
2022/04/03 03:04:40;;;;;;;5.10;1.30;;;;;;;;;;4915996;29;20024;-67
2022/04/03 03:07:08;;;;;;;3.25;1.10;;;;;;;;;;4915949;29;20119;-69
2022/04/03 03:09:34;;;;;;;2.40;1.42;;;;;;;;;;4915804;29;20538;-71
2022/04/03 03:12:00;;;;;;;2.38;1.20;;;;;;;;;;4915673;29;20044;-68
2022/04/03 03:14:28;;;;;;;4.47;1.33;;;;;;;;;;4915720;29;20036;-68
2022/04/03 03:16:55;;;;;;;4.50;1.20;;;;;;;;;;4915446;29;20036;-68
2022/04/03 03:19:21;;;;;;;2.92;1.25;;;;;;;;;;4915440;29;20036;-74
2022/04/03 03:21:47;;;;;;;1.80;1.08;;;;;;;;;;4915454;29;20523;-71
2022/04/03 03:24:15;;;;;;;11.45;1.60;;;;;;;;;;4915132;29;20032;-70
2022/04/03 03:26:41;;;;;;;1.98;1.00;;;;;;;;;;4915637;29;20045;-74
2022/04/03 03:29:08;;;;;;;2.92;1.48;;;;;;;;;;4916718;29;20487;-68
2022/04/03 03:31:34;;;;;;;1.50;1.10;;;;;;;;;;4915681;29;20070;-71
2022/04/03 03:34:00;;;;;;;2.75;1.48;;;;;;;;;;4915717;29;20024;-71
2022/04/03 03:36:27;;;;;;;4.30;1.40;;;;;;;;;;4915319;29;20043;-71
2022/04/03 03:38:54;;;;;;;4.75;1.40;;;;;;;;;;4920954;29;20028;-73
2022/04/03 03:41:20;;;;;;;2.85;1.15;;;;;;;;;;4934157;29;20086;-72
2022/04/03 03:43:45;;;;;;;2.50;1.40;;;;;;;;;;4934253;29;20031;-70
2022/04/03 03:46:11;;;;;;;7.03;1.80;;;;;;;;;;4934392;29;20087;-68
2022/04/03 03:48:37;;;;;;;2.08;1.30;;;;;;;;;;4934447;29;20059;-73
2022/04/03 03:51:04;;;;;;;2.67;1.20;;;;;;;;;;4934459;29;20459;-70
2022/04/03 03:53:30;;;;;;;2.10;1.10;;;;;;;;;;4933695;29;20067;-69
2022/04/03 03:55:57;;;;;;;2.25;1.30;;;;;;;;;;4932757;29;20041;-72
2022/04/03 03:58:23;;;;;;;2.25;1.35;;;;;;;;;;4934307;29;20083;-69
2022/04/03 04:00:50;;;;;;;5.15;1.30;;;;;;;;;;4933785;29;20059;-70
2022/04/03 04:03:16;;;;;;;3.28;1.38;;;;;;;;;;4937435;29;20028;-69
2022/04/03 04:05:42;;;;;;;7.57;1.40;;;;;;;;;;4937647;29;20035;-69
2022/04/03 04:08:08;;;;;;;3.40;1.30;;;;;;;;;;4937709;29;20055;-70
2022/04/03 04:10:35;;;;;;;3.08;1.30;;;;;;;;;;4938584;29;20031;-68
2022/04/03 04:13:01;;;;;;;2.15;1.00;;;;;;;;;;4938461;29;20028;-66
2022/04/03 04:15:28;;;;;;;3.20;1.23;;;;;;;;;;4937549;29;20035;-68
2022/04/03 04:17:54;;;;;;;1.73;1.08;;;;;;;;;;4937412;29;20023;-69
2022/04/03 04:20:21;;;;;;;4.70;1.25;;;;;;;;;;4936957;29;20035;-69
2022/04/03 04:22:48;;;;;;;3.95;1.20;;;;;;;;;;4937242;29;20038;-68
2022/04/03 04:25:16;;;;;;;2.63;1.10;;;;;;;;;;4937264;29;20057;-70
2022/04/03 04:27:43;;;;;;;1.40;0.90;;;;;;;;;;4937255;29;20051;-71
2022/04/03 04:30:09;;;;;;;2.88;1.33;;;;;;;;;;4937282;29;20475;-68
2022/04/03 04:32:35;;;;;;;2.92;1.17;;;;;;;;;;4937138;29;20036;-69
2022/04/03 04:35:01;;;;;;;2.17;1.00;;;;;;;;;;4935563;29;20543;-69
2022/04/03 04:37:26;;;;;;;3.47;1.15;;;;;;;;;;4933989;29;20034;-72
2022/04/03 04:39:53;;;;;;;4.68;1.25;;;;;;;;;;4937867;29;20091;-69
2022/04/03 04:42:19;;;;;;;2.85;1.00;;;;;;;;;;4937729;29;20107;-68
2022/04/03 04:44:45;;;;;;;3.47;0.95;;;;;;;;;;4937704;29;20091;-70
2022/04/03 04:47:10;;;;;;;1.70;0.80;;;;;;;;;;4937915;29;20466;-69
2022/04/03 04:49:37;;;;;;;1.98;0.98;;;;;;;;;;4937760;29;20032;-71
2022/04/03 04:52:03;;;;;;;3.55;1.20;;;;;;;;;;4937480;29;20083;-71
2022/04/03 04:54:30;;;;;;;4.05;1.08;;;;;;;;;;4937263;29;20068;-72
2022/04/03 04:56:57;;;;;;;2.13;1.20;;;;;;;;;;4947655;29;20028;-72
2022/04/03 04:59:23;;;;;;;6.70;1.27;;;;;;;;;;4956468;28;20486;-70
2022/04/03 05:01:49;;;;;;;5.30;1.50;;;;;;;;;;4955416;29;20040;-71
2022/04/03 05:04:15;;;;;;;4.57;1.40;;;;;;;;;;4956434;28;20367;-73
2022/04/03 05:06:42;;;;;;;28.58;18.50;;;;;;;;;;4956330;28;20111;-71
2022/04/03 05:09:07;;;;;;;18.92;11.23;;;;;;;;;;4956180;28;20162;-71
2022/04/03 05:11:36;;;;;;;8.85;5.53;;;;;;;;;;4945141;28;20497;-72
2022/04/03 05:14:03;;;;;;;3.97;1.65;;;;;;;;;;4936864;29;20031;-74
2022/04/03 05:16:29;;;;;;;2.78;1.08;;;;;;;;;;4936755;29;20463;-73
2022/04/03 05:18:55;;;;;;;2.67;1.00;;;;;;;;;;4937061;29;20039;-71
2022/04/03 05:21:22;;;;;;;3.78;0.98;;;;;;;;;;4937064;29;20031;-70
2022/04/03 05:23:49;;;;;;;1.58;0.90;;;;;;;;;;4937105;29;20035;-72
2022/04/03 05:26:17;;;;;;;1.75;0.90;;;;;;;;;;4936859;29;20485;-71
2022/04/03 05:28:44;;;;;;;2.83;0.88;;;;;;;;;;4936712;29;20073;-70
2022/04/03 05:31:11;;;;;;;1.63;0.88;;;;;;;;;;4936430;29;20048;-74
2022/04/03 05:33:37;;;;;;;1.85;0.88;;;;;;;;;;4936503;29;20044;-74
2022/04/03 05:36:04;;;;;;;2.45;1.23;;;;;;;;;;4936954;29;20039;-73
2022/04/03 05:38:31;;;;;;;4.00;1.27;;;;;;;;;;4937147;29;20039;-75
2022/04/03 05:40:57;;;;;;;3.00;1.15;;;;;;;;;;4937017;29;20095;-74
2022/04/03 05:43:23;;;;;;;2.65;1.10;;;;;;;;;;4936771;29;20047;-75
2022/04/03 05:45:49;;;;;;;3.80;1.17;;;;;;;;;;4936857;29;20434;-73
2022/04/03 05:48:15;;;;;;;4.22;1.48;;;;;;;;;;4936766;29;20042;-72
2022/04/03 05:50:41;;;;;;;1.90;1.10;;;;;;;;;;4936912;29;20039;-74
2022/04/03 05:53:07;;;;;;;4.28;1.15;;;;;;;;;;4937067;29;20094;-73
2022/04/03 05:55:33;;;;;;;3.28;1.45;;;;;;;;;;4936861;29;20051;-78
2022/04/03 05:57:59;;;;;;;3.00;0.90;;;;;;;;;;4936660;29;20043;-72
2022/04/03 06:00:25;;;;;;;2.85;0.90;;;;;;;;;;4936645;29;20027;-73
2022/04/03 06:02:56;;;;;;;4.38;1.00;;;;;;;;;;4936479;29;20036;-73
2022/04/03 06:05:27;;;;;;;1.95;1.00;;;;;;;;;;4936236;29;20475;-71
2022/04/03 06:07:53;;;;;;;3.40;1.60;;;;;;;;;;4936215;29;20032;-72
2022/04/03 06:10:20;;;;;;;4.40;1.95;;;;;;;;;;4935912;29;20070;-72
2022/04/03 06:13:09;;;;;;;7.85;2.55;;;;;;;;;;4936054;29;20180;-76
2022/04/03 06:15:37;;;;;;;9.30;3.15;;;;;;;;;;4936217;29;20079;-72
2022/04/03 06:18:14;;;;;;;6.57;1.92;;;;;;;;;;4936316;29;20438;-72
2022/04/03 06:20:41;;;;;;;2.83;1.20;;;;;;;;;;4936743;29;20084;-72
2022/04/03 06:23:18;;;;;;;3.33;1.08;;;;;;;;;;4937377;29;20031;-73
2022/04/03 06:25:45;;;;;;;4.22;1.30;;;;;;;;;;4936138;29;20039;-72
2022/04/03 06:28:12;;;;;;;5.72;1.30;;;;;;;;;;4936731;29;20052;-72
2022/04/03 06:30:38;;;;;;;2.63;1.27;;;;;;;;;;4936318;29;20598;-71
2022/04/03 06:33:04;;;;;;;5.65;1.38;;;;;;;;;;4936672;29;20067;-71
2022/04/03 06:35:30;;;;;;;2.40;1.05;;;;;;;;;;4936303;29;20472;-72
2022/04/03 06:37:56;;;;;;;6.45;1.27;;;;;;;;;;4936061;29;20034;-72
2022/04/03 06:40:23;;;;;;;5.88;0.88;;;;;;;;;;4936024;29;20036;-71
2022/04/03 06:42:50;;;;;;;2.78;0.80;;;;;;;;;;4935901;29;20028;-70
2022/04/03 06:45:16;;;;;;;2.95;0.90;;;;;;;;;;4935874;29;20046;-74
2022/04/03 06:47:42;;;;;;;3.75;1.30;;;;;;;;;;4936035;29;20364;-71
2022/04/03 06:50:09;;;;;;;4.28;0.90;;;;;;;;;;4935751;29;20032;-71
2022/04/03 06:52:36;;;;;;;1.90;0.73;;;;;;;;;;4935744;29;20028;-72
2022/04/03 06:55:04;;;;;;;2.88;0.75;;;;;;;;;;4935581;29;20051;-71
2022/04/03 06:57:30;;;;;;;3.05;0.80;;;;;;;;;;4932769;29;20115;-71
2022/04/03 06:59:56;;;;;;;2.22;0.70;;;;;;;;;;4943110;29;20453;-71
2022/04/03 07:02:22;;;;;;;3.58;1.35;;;;;;;;;;4954382;28;20184;-72
2022/04/03 07:04:48;;;;;;;2.40;1.00;;;;;;;;;;4954142;28;20068;-74
2022/04/03 07:07:25;;;;;;;2.42;1.02;;;;;;;;;;4954349;28;20055;-72
2022/04/03 07:09:52;;;;;;;4.53;1.08;;;;;;;;;;4952941;29;20023;-72
2022/04/03 07:12:19;;;;;;;2.08;0.80;;;;;;;;;;4954359;28;20445;-72
2022/04/03 07:14:44;;;;;;;1.98;0.93;;;;;;;;;;4954091;28;20396;-73
2022/04/03 07:17:10;;;;;;;2.83;0.90;;;;;;;;;;4954163;28;20024;-70
2022/04/03 07:19:36;;;;;;;1.75;0.82;;;;;;;;;;4954472;28;20066;-73
2022/04/03 07:22:02;;;;;;;2.70;1.50;;;;;;;;;;4954146;28;20115;-73
2022/04/03 07:24:28;;;;;;;5.07;1.50;;;;;;;;;;4954072;28;20494;-73
2022/04/03 07:26:54;;;;;;;2.42;1.00;;;;;;;;;;4954211;28;20024;-72
2022/04/03 07:29:21;;;;;;;6.72;1.25;;;;;;;;;;4954360;28;20035;-72
2022/04/03 07:31:47;;;;;;;2.63;1.30;;;;;;;;;;4954076;28;20475;-71
2022/04/03 07:34:13;;;;;;;6.28;1.15;;;;;;;;;;4953893;28;20031;-75
2022/04/03 07:36:39;;;;;;;2.22;0.90;;;;;;;;;;4957783;28;20023;-74
2022/04/03 07:39:05;;;;;;;2.35;1.23;;;;;;;;;;4957742;28;20031;-76
2022/04/03 07:41:31;;;;;;;1.33;0.70;;;;;;;;;;4957973;28;20037;-76
2022/04/03 07:43:57;;;;;;;3.97;1.67;;;;;;;;;;4957846;28;20046;-72
2022/04/03 07:46:22;;;;;;;6.22;1.20;;;;;;;;;;4957556;28;20070;-71
2022/04/03 07:48:48;;;;;;;2.10;1.10;;;;;;;;;;4957535;28;20110;-73
2022/04/03 07:51:14;;;;;;;5.57;1.30;;;;;;;;;;4956302;29;20050;-72
2022/04/03 07:53:40;;;;;;;2.92;1.00;;;;;;;;;;4957059;28;20047;-73
2022/04/03 07:56:06;;;;;;;2.38;1.00;;;;;;;;;;4956943;28;20074;-70
2022/04/03 07:58:34;;;;;;;3.10;1.15;;;;;;;;;;4957128;28;20047;-71
2022/04/03 08:01:00;;;;;;;3.72;1.27;;;;;;;;;;4933065;28;20031;-71
2022/04/03 08:03:26;;;;;;;3.03;1.20;;;;;;;;;;4919830;29;20329;-70
2022/04/03 08:05:54;;;;;;;10.07;1.65;;;;;;;;;;4918971;29;20197;-72
2022/04/03 08:08:20;;;;;;;3.40;1.27;;;;;;;;;;4918859;29;20404;-71
2022/04/03 08:10:46;;;;;;;2.33;1.15;;;;;;;;;;4931715;29;20111;-71
2022/04/03 08:13:12;;;;;;;1.40;0.90;;;;;;;;;;4934025;29;20051;-71
2022/04/03 08:15:38;;;;;;;3.60;1.10;;;;;;;;;;4935798;29;20027;-72
2022/04/03 08:18:05;;;;;;;2.28;1.23;;;;;;;;;;4936483;29;20410;-71
2022/04/03 08:20:31;;;;;;;4.10;1.17;;;;;;;;;;4935287;29;20028;-71
2022/04/03 08:22:58;;;;;;;8.13;1.58;;;;;;;;;;4935778;29;20031;-71
2022/04/03 08:25:23;;;;;;;4.88;1.30;;;;;;;;;;4935932;29;20046;-72
2022/04/03 08:27:52;;;;;;;2.60;1.20;;;;;;;;;;4936528;29;20119;-71
2022/04/03 08:30:24;;;;;;;3.75;1.00;;;;;;;;;;4936736;29;20506;-70
2022/04/03 08:32:51;;;;;;;3.93;0.97;;;;;;;;;;4936364;29;20455;-69
2022/04/03 08:35:18;;;;;;;5.13;1.15;;;;;;;;;;4936211;29;20035;-71
2022/04/03 08:37:44;;;;;;;6.07;1.13;;;;;;;;;;4937126;29;20099;-71
2022/04/03 08:40:12;;;;;;;2.88;1.50;;;;;;;;;;4936333;29;20028;-70
2022/04/03 08:42:39;;;;;;;3.95;1.00;;;;;;;;;;4936732;29;20043;-70
2022/04/03 08:45:11;;;;;;;3.28;1.00;;;;;;;;;;4936334;29;20155;-70
2022/04/03 08:47:47;;;;;;;6.03;1.33;;;;;;;;;;4935303;29;20054;-71
2022/04/03 08:50:15;;;;;;;3.92;1.23;;;;;;;;;;4936562;29;20035;-70
2022/04/03 08:52:48;;;;;;;3.22;1.20;;;;;;;;;;4936517;29;20031;-71
2022/04/03 08:55:16;;;;;;;5.95;1.33;;;;;;;;;;4934678;29;20040;-73
2022/04/03 08:57:42;;;;;;;3.08;1.17;;;;;;;;;;4936050;29;20383;-72
2022/04/03 09:00:10;;;;;;;4.47;1.20;;;;;;;;;;4936004;29;20038;-73
2022/04/03 09:02:36;;;;;;;1.65;0.73;;;;;;;;;;4934128;29;20110;-71
2022/04/03 09:05:05;;;;;;;3.05;0.95;;;;;;;;;;4935184;29;20383;-72
2022/04/03 09:07:31;;;;;;;2.95;1.13;;;;;;;;;;4935744;29;20032;-72
2022/04/03 09:09:58;;;;;;;5.50;1.40;;;;;;;;;;4935574;29;20123;-70
2022/04/03 09:12:24;;;;;;;3.35;1.10;;;;;;;;;;4935446;29;20020;-67
2022/04/03 09:14:55;;;;;;;5.20;1.02;;;;;;;;;;4947199;28;20390;-72
2022/04/03 09:17:40;;;;;;;7.03;1.10;;;;;;;;;;4953701;28;20046;-71
2022/04/03 09:20:12;;;;;;;4.22;1.48;;;;;;;;;;4936670;29;20040;-71
2022/04/03 09:22:40;;;;;;;3.85;1.13;;;;;;;;;;4936346;29;20076;-71
2022/04/03 09:25:11;;;;;;;7.50;1.73;;;;;;;;;;4935838;29;20039;-72
2022/04/03 09:27:51;;;;;;;5.55;1.60;;;;;;;;;;4936185;29;20106;-71
2022/04/03 09:30:18;;;;;;;4.07;1.30;;;;;;;;;;4936650;29;20040;-72
2022/04/03 09:32:47;;;;;;;3.28;1.00;;;;;;;;;;4936639;29;20059;-74
2022/04/03 09:35:15;;;;;;;3.38;1.10;;;;;;;;;;4936267;29;20079;-73
2022/04/03 09:38:18;;;;;;;2.20;0.82;;;;;;;;;;4938085;29;20031;-73
2022/04/03 09:40:51;;;;;;;3.65;1.05;;;;;;;;;;4936176;29;20042;-73
2022/04/03 09:43:34;;;;;;;2.17;1.05;;;;;;;;;;4935971;29;20509;-72
2022/04/03 09:46:04;;;;;;;5.25;1.15;;;;;;;;;;4936053;29;20040;-73
2022/04/03 09:48:31;;;;;;;3.83;1.50;;;;;;;;;;4935979;29;20058;-74
2022/04/03 09:51:12;;;;;;;4.82;2.65;;;;;;;;;;4936563;29;20043;-72
2022/04/03 09:53:56;;;;;;;3.08;1.80;;;;;;;;;;4954734;29;20043;-74
2022/04/03 09:56:25;;;;;;;3.67;1.42;;;;;;;;;;4954900;28;20031;-70
2022/04/03 09:58:50;;;;;;;5.35;1.15;;;;;;;;;;4954233;28;20023;-71
2022/04/03 10:01:27;;;;;;;4.22;1.55;;;;;;;;;;4954802;28;20046;-72
2022/04/03 10:03:54;;;;;;;5.55;1.55;;;;;;;;;;4955167;28;20043;-73
2022/04/03 10:06:21;;;;;;;7.70;2.50;;;;;;;;;;4955372;28;20027;-71
2022/04/03 10:08:47;;;;;;;4.82;1.92;;;;;;;;;;4955320;28;20035;-72
2022/04/03 10:11:15;;;;;;;5.18;1.52;;;;;;;;;;4955217;28;20035;-75
2022/04/03 10:13:42;;;;;;;4.43;1.52;;;;;;;;;;4939781;28;20110;-71
2022/04/03 10:16:08;;;;;;;4.57;1.63;;;;;;;;;;4935674;29;20028;-75
2022/04/03 10:18:34;;;;;;;3.67;1.45;;;;;;;;;;4936029;29;20039;-73
2022/04/03 10:21:01;;;;;;;3.65;1.33;;;;;;;;;;4933788;29;20028;-77
2022/04/03 10:23:29;;;;;;;5.13;2.10;;;;;;;;;;4950984;28;20036;-74
2022/04/03 10:25:56;;;;;;;4.72;1.50;;;;;;;;;;4932011;29;20415;-72
2022/04/03 10:28:23;;;;;;;3.22;1.30;;;;;;;;;;4934485;29;20573;-71
2022/04/03 10:30:59;;;;;;;3.83;1.50;;;;;;;;;;4935373;29;20027;-77
2022/04/03 10:33:25;;;;;;;4.82;1.30;;;;;;;;;;4935651;29;20040;-76
2022/04/03 10:36:06;;;;;;;3.58;1.83;;;;;;;;;;4935373;29;20027;-74
2022/04/03 10:38:55;;;;;;;5.38;1.90;;;;;;;;;;4935080;29;20040;-73
2022/04/03 10:41:48;;;;;;;4.45;1.95;;;;;;;;;;4935178;29;20040;-73
2022/04/03 10:44:22;;;;;;;7.75;2.38;;;;;;;;;;4934998;29;20044;-73
2022/04/03 10:47:03;;;;;;;5.63;1.83;;;;;;;;;;4935135;29;20044;-73
2022/04/03 10:49:39;;;;;;;4.38;1.80;;;;;;;;;;4935414;29;20039;-76
2022/04/03 10:52:07;;;;;;;5.93;2.15;;;;;;;;;;4933526;29;20391;-76
2022/04/03 10:54:43;;;;;;;2.90;1.23;;;;;;;;;;4924040;29;20098;-74
2022/04/03 10:57:32;;;;;;;3.65;1.67;;;;;;;;;;4953060;29;20045;-75
2022/04/03 11:00:27;;;;;;;4.20;1.58;;;;;;;;;;4947352;28;20046;-73
2022/04/03 11:03:01;;;;;;;4.38;1.70;;;;;;;;;;4930450;29;20122;-74
2022/04/03 11:05:27;;;;;;;7.28;1.70;;;;;;;;;;4933958;29;20122;-76
2022/04/03 11:08:14;;;;;;;3.05;1.00;;;;;;;;;;4934878;29;20451;-77
2022/04/03 11:10:53;;;;;;;2.90;1.20;;;;;;;;;;4937116;29;20039;-77
2022/04/03 11:13:23;;;;;;;4.82;1.88;;;;;;;;;;4936020;29;20514;-70
2022/04/03 11:15:49;;;;;;;4.80;1.70;;;;;;;;;;4932157;29;20035;-74
2022/04/03 11:18:36;;;;;;;5.47;1.27;;;;;;;;;;4937174;29;20023;-71
2022/04/03 11:21:17;;;;;;;4.72;1.15;;;;;;;;;;4933406;29;20044;-72
2022/04/03 11:23:48;;;;;;;4.75;1.40;;;;;;;;;;4938749;29;20047;-75
2022/04/03 11:26:15;;;;;;;14.02;1.83;;;;;;;;;;4938796;29;20047;-72
2022/04/03 11:28:44;;;;;;;6.68;1.40;;;;;;;;;;4935473;29;20051;-72
2022/04/03 11:31:10;;;;;;;4.78;1.63;;;;;;;;;;4938683;29;20115;-74
2022/04/03 11:33:37;;;;;;;5.13;1.90;;;;;;;;;;4938128;29;20020;-71
2022/04/03 11:36:06;;;;;;;5.03;1.40;;;;;;;;;;4938514;29;20028;-73
2022/04/03 11:38:52;;;;;;;3.97;1.80;;;;;;;;;;4938530;29;20067;-72
2022/04/03 11:41:22;;;;;;;3.83;1.90;;;;;;;;;;4936681;29;20036;-74
2022/04/03 11:44:02;;;;;;;7.95;2.38;;;;;;;;;;4938334;29;20040;-78
2022/04/03 11:46:30;;;;;;;5.93;2.25;;;;;;;;;;4937969;29;20089;-77
2022/04/03 11:48:56;;;;;;;3.08;1.20;;;;;;;;;;4939721;29;20055;-77
2022/04/03 11:51:23;;;;;;;5.30;1.30;;;;;;;;;;4938511;29;20387;-73
2022/04/03 11:53:59;;;;;;;3.65;1.40;;;;;;;;;;4938319;29;20099;-76
2022/04/03 11:56:26;;;;;;;5.07;1.75;;;;;;;;;;4938304;29;20395;-77
2022/04/03 11:58:56;;;;;;;3.67;1.40;;;;;;;;;;4938161;29;20039;-77
2022/04/03 12:01:31;;;;;;;1.65;0.80;;;;;;;;;;4938184;29;20032;-77
2022/04/03 12:04:13;;;;;;;4.68;1.50;;;;;;;;;;4938345;29;20048;-74
2022/04/03 12:06:47;;;;;;;2.97;1.35;;;;;;;;;;4938317;29;20083;-76
2022/04/03 12:09:15;;;;;;;3.38;1.35;;;;;;;;;;4937993;29;20377;-76
2022/04/03 12:11:47;;;;;;;2.70;1.20;;;;;;;;;;4937984;29;20440;-72
2022/04/03 12:14:22;;;;;;;5.43;1.33;;;;;;;;;;4938018;29;20098;-76
2022/04/03 12:16:58;;;;;;;4.25;1.60;;;;;;;;;;4937732;29;20036;-74
2022/04/03 12:19:24;;;;;;;3.35;1.70;;;;;;;;;;4938207;29;20032;-76
2022/04/03 12:21:56;;;;;;;2.08;1.10;;;;;;;;;;4936896;29;20039;-75
2022/04/03 12:24:23;;;;;;;2.42;1.00;;;;;;;;;;4937737;29;20039;-74
2022/04/03 12:26:49;;;;;;;2.40;1.10;;;;;;;;;;4937469;29;20035;-77
2022/04/03 12:29:16;;;;;;;7.63;2.45;;;;;;;;;;4937242;29;20122;-75
2022/04/03 12:31:42;;;;;;;3.83;1.20;;;;;;;;;;4937239;29;20485;-74
2022/04/03 12:34:08;;;;;;;4.20;1.55;;;;;;;;;;4935843;29;20478;-75
2022/04/03 12:36:38;;;;;;;3.80;1.63;;;;;;;;;;4934760;29;20059;-75
2022/04/03 12:39:30;;;;;;;4.10;1.20;;;;;;;;;;4936665;29;20179;-79
2022/04/03 12:42:07;;;;;;;5.35;1.30;;;;;;;;;;4936692;29;20036;-76
2022/04/03 12:44:49;;;;;;;3.15;1.42;;;;;;;;;;4935293;29;20047;-77
2022/04/03 12:47:18;;;;;;;10.52;1.63;;;;;;;;;;4918363;29;20051;-75
2022/04/03 12:50:07;;;;;;;4.78;1.58;;;;;;;;;;4935615;29;20115;-76
2022/04/03 12:52:39;;;;;;;4.43;1.40;;;;;;;;;;4935733;29;20036;-75
2022/04/03 12:55:32;;;;;;;3.35;1.60;;;;;;;;;;4934989;29;20035;-75
2022/04/03 13:00:55;;;;;;;3.72;1.52;;;;;;;;;;4937039;29;20039;-75
2022/04/03 13:03:30;;;;;;;6.38;2.10;;;;;;;;;;4936718;29;20031;-76
2022/04/03 13:05:58;;;;;;;5.03;1.92;;;;;;;;;;4931904;29;20074;-77
2022/04/03 13:08:24;;;;;;;8.68;3.08;;;;;;;;;;4936685;29;20087;-75
2022/04/03 13:10:51;;;;;;;9.20;2.90;;;;;;;;;;4936998;29;20051;-75
2022/04/03 13:13:25;;;;;;;5.97;2.97;;;;;;;;;;4935311;29;20039;-75
2022/04/03 13:15:53;;;;;;;5.40;2.50;;;;;;;;;;4936306;29;20028;-76
2022/04/03 13:18:19;;;;;;;5.40;2.20;;;;;;;;;;4936274;29;20364;-77
2022/04/03 13:20:55;;;;;;;4.25;2.42;;;;;;;;;;4936315;29;20160;-75
2022/04/03 13:23:23;;;;;;;7.68;2.65;;;;;;;;;;4936734;29;20435;-77
2022/04/03 13:25:49;;;;;;;4.95;1.70;;;;;;;;;;4936672;29;20126;-76
2022/04/03 13:28:19;;;;;;;5.35;2.03;;;;;;;;;;4935091;29;20044;-76
2022/04/03 13:30:50;;;;;;;6.03;1.70;;;;;;;;;;4932008;29;20032;-75
2022/04/03 13:33:16;;;;;;;4.43;1.38;;;;;;;;;;4929939;29;20070;-76
2022/04/03 13:35:44;;;;;;;6.40;1.75;;;;;;;;;;4935958;29;20032;-75
2022/04/03 13:38:11;;;;;;;4.75;1.90;;;;;;;;;;4936317;29;20143;-75
2022/04/03 13:40:38;;;;;;;3.58;1.60;;;;;;;;;;4935914;29;20147;-76
2022/04/03 13:43:11;;;;;;;3.67;1.27;;;;;;;;;;4936044;29;20410;-74
2022/04/03 13:48:35;;;;;;;4.35;1.50;;;;;;;;;;4955268;29;20058;-79
2022/04/03 13:51:07;;;;;;;2.97;1.38;;;;;;;;;;4940379;28;20388;-78
2022/04/03 13:53:33;;;;;;;3.42;1.50;;;;;;;;;;4934970;29;20119;-76
2022/04/03 13:56:00;;;;;;;3.97;1.23;;;;;;;;;;4933021;29;20434;-76
2022/04/03 13:58:26;;;;;;;6.90;1.80;;;;;;;;;;4931977;29;20119;-75
2022/04/03 14:00:54;;;;;;;5.70;1.75;;;;;;;;;;4935173;29;20024;-75
2022/04/03 14:03:24;;;;;;;4.15;1.50;;;;;;;;;;4920875;29;20044;-77
2022/04/03 14:05:50;;;;;;;4.75;2.10;;;;;;;;;;4927528;29;20039;-73
2022/04/03 14:08:16;;;;;;;4.20;1.65;;;;;;;;;;4914706;29;20024;-75
2022/04/03 14:10:43;;;;;;;3.55;1.48;;;;;;;;;;4913545;29;20040;-73
2022/04/03 14:13:09;;;;;;;3.22;1.63;;;;;;;;;;4928050;29;20032;-72
2022/04/03 14:15:36;;;;;;;3.38;1.52;;;;;;;;;;4914095;29;20036;-75
2022/04/03 14:18:03;;;;;;;5.60;1.73;;;;;;;;;;4919131;29;20035;-76
2022/04/03 14:20:29;;;;;;;3.78;1.35;;;;;;;;;;4926489;29;20042;-72
2022/04/03 14:22:55;;;;;;;3.53;1.50;;;;;;;;;;4925867;29;20032;-75
2022/04/03 14:25:21;;;;;;;2.50;1.02;;;;;;;;;;4932377;29;20079;-74
2022/04/03 14:27:49;;;;;;;4.53;1.60;;;;;;;;;;4899015;28;20544;-75
2022/04/03 14:30:15;;;;;;;4.05;1.70;;;;;;;;;;4910095;29;20036;-74
2022/04/03 14:32:45;;;;;;;6.68;1.73;;;;;;;;;;4915392;29;20058;-74
2022/04/03 14:35:15;;;;;;;5.57;2.30;;;;;;;;;;4915195;29;20040;-74
2022/04/03 14:37:42;;;;;;;4.38;1.67;;;;;;;;;;4914878;29;20040;-72
2022/04/03 14:40:10;;;;;;;6.05;1.38;;;;;;;;;;4909752;29;20115;-73
2022/04/03 14:42:36;;;;;;;3.47;1.20;;;;;;;;;;4915236;29;20404;-74
2022/04/03 14:45:03;;;;;;;3.78;1.38;;;;;;;;;;4913281;29;20032;-73
2022/04/03 14:47:30;;;;;;;8.07;2.00;;;;;;;;;;4916938;29;20028;-72
2022/04/03 14:49:57;;;;;;;4.60;1.50;;;;;;;;;;4915047;29;20028;-74
2022/04/03 14:52:24;;;;;;;3.88;1.52;;;;;;;;;;4913851;29;20045;-73
2022/04/03 14:54:50;;;;;;;3.55;1.27;;;;;;;;;;4913341;29;20321;-73
2022/04/03 14:57:16;;;;;;;3.90;1.60;;;;;;;;;;4913886;29;20043;-72